Time;durP1;ratioP1;P1;durP2;ratioP2;P2;SDS_P1;SDS_P2;PMS_P1;PMS_P2;Temp;Humidity;BMP_temperature;BMP_pressure;BME280_temperature;BME280_humidity;BME280_pressure;Samples;Min_cycle;Max_cycle;Signal;HPM_P1;HPM_P2
2022/03/16 00:01:46;;;;;;;1347.90;999.90;;;;;;;3.45;100.00;101984.06;5037685;28;21050;-78
2022/03/16 00:04:20;;;;;;;1347.70;999.90;;;;;;;3.46;100.00;101974.16;5032536;28;20064;-77
2022/03/16 00:06:54;;;;;;;1344.78;999.90;;;;;;;3.40;100.00;101970.41;5030528;28;20414;-76
2022/03/16 00:09:22;;;;;;;1349.40;999.90;;;;;;;3.36;100.00;101983.41;5032190;28;20067;-78
2022/03/16 00:11:56;;;;;;;1347.03;999.90;;;;;;;3.25;100.00;101981.28;5041079;28;20060;-76
2022/03/16 00:14:24;;;;;;;1350.07;999.90;;;;;;;3.16;100.00;101977.94;5041502;28;20060;-77
2022/03/16 00:16:57;;;;;;;1350.00;999.90;;;;;;;3.14;100.00;101982.66;5060480;28;20064;-78
2022/03/16 00:19:31;;;;;;;1356.57;999.90;;;;;;;3.17;100.00;101992.22;5038131;28;20048;-77
2022/03/16 00:22:06;;;;;;;1359.40;999.90;;;;;;;3.18;100.00;101991.19;5038314;28;20088;-77
2022/03/16 00:24:39;;;;;;;1365.43;999.90;;;;;;;3.17;100.00;101997.59;5030814;28;20150;-77
2022/03/16 00:27:07;;;;;;;1369.00;999.90;;;;;;;3.15;100.00;102005.88;5029171;28;20050;-77
2022/03/16 00:29:36;;;;;;;1369.50;999.90;;;;;;;3.12;100.00;102008.94;5036261;28;20049;-78
2022/03/16 00:32:05;;;;;;;1374.35;999.90;;;;;;;3.16;100.00;102014.75;5031862;28;20053;-77
2022/03/16 00:34:39;;;;;;;1379.63;999.90;;;;;;;3.27;100.00;102008.81;5029359;28;20418;-77
2022/03/16 00:37:15;;;;;;;1387.63;999.90;;;;;;;3.15;100.00;102013.09;5030945;28;20053;-79
2022/03/16 00:39:48;;;;;;;1386.60;999.90;;;;;;;3.13;100.00;102013.28;5040596;28;20053;-78
2022/03/16 00:42:21;;;;;;;1391.30;999.90;;;;;;;3.15;100.00;102021.16;5038764;28;20048;-77
2022/03/16 00:44:54;;;;;;;1386.47;999.90;;;;;;;2.98;100.00;102029.53;5049258;28;20807;-78
2022/03/16 00:47:28;;;;;;;1386.38;999.90;;;;;;;2.82;100.00;102022.59;5040877;28;20076;-76
2022/03/16 00:50:01;;;;;;;1384.18;999.90;;;;;;;2.88;100.00;102031.72;5031777;28;20064;-77
2022/03/16 00:52:30;;;;;;;1386.30;999.90;;;;;;;2.82;100.00;102022.59;5042944;28;20502;-78
2022/03/16 00:55:04;;;;;;;1384.15;999.90;;;;;;;2.86;100.00;102021.19;5051097;28;20057;-77
2022/03/16 00:57:38;;;;;;;1387.95;999.90;;;;;;;2.92;100.00;102022.25;5062552;28;20055;-77
2022/03/16 01:00:07;;;;;;;1400.35;999.90;;;;;;;3.03;100.00;102037.84;5049000;28;20826;-77
2022/03/16 01:02:41;;;;;;;1416.32;999.90;;;;;;;3.08;100.00;102029.19;5054836;28;20056;-77
2022/03/16 01:05:14;;;;;;;1441.40;999.90;;;;;;;3.10;100.00;102027.13;5041158;28;20049;-77
2022/03/16 01:07:48;;;;;;;1453.60;999.90;;;;;;;3.08;100.00;102031.03;5037928;28;20068;-77
2022/03/16 01:10:16;;;;;;;1459.35;999.90;;;;;;;2.96;100.00;102039.66;5030590;28;20081;-77
2022/03/16 01:12:45;;;;;;;1457.78;999.90;;;;;;;2.85;100.00;102045.56;5035657;28;20037;-75
2022/03/16 01:15:23;;;;;;;1457.63;999.90;;;;;;;2.83;100.00;102029.63;5030485;28;20053;-77
2022/03/16 01:17:56;;;;;;;1459.00;999.90;;;;;;;2.83;100.00;102053.84;5044292;28;20063;-76
2022/03/16 01:20:29;;;;;;;1452.80;999.90;;;;;;;2.85;100.00;102048.25;5034564;28;20053;-76
2022/03/16 01:22:58;;;;;;;1459.70;999.90;;;;;;;2.73;100.00;102037.19;5035886;28;20053;-77
2022/03/16 01:25:31;;;;;;;1455.85;999.90;;;;;;;2.72;100.00;102052.50;5040878;28;20049;-77
2022/03/16 01:28:05;;;;;;;1454.07;999.90;;;;;;;2.64;100.00;102055.31;5033304;28;20072;-78
2022/03/16 01:30:33;;;;;;;1450.10;999.90;;;;;;;2.62;100.00;102053.84;5044343;28;20044;-78
2022/03/16 01:33:06;;;;;;;1447.97;999.90;;;;;;;2.58;100.00;102057.94;5034451;28;20071;-76
2022/03/16 01:35:35;;;;;;;1447.28;999.90;;;;;;;2.52;100.00;102055.00;5034300;28;20055;-77
2022/03/16 01:38:12;;;;;;;1443.28;999.90;;;;;;;2.45;100.00;102051.41;5031820;28;20072;-77
2022/03/16 01:40:45;;;;;;;1447.22;999.90;;;;;;;2.37;100.00;102052.38;5044692;28;20064;-77
2022/03/16 01:43:19;;;;;;;1449.20;999.90;;;;;;;2.32;100.00;102053.97;5053380;28;20041;-77
2022/03/16 01:45:53;;;;;;;1443.57;999.90;;;;;;;2.26;100.00;102063.63;5040947;28;20044;-77
2022/03/16 01:48:21;;;;;;;1446.20;999.90;;;;;;;2.19;100.00;102051.97;5031573;28;20065;-76
2022/03/16 01:50:51;;;;;;;1440.25;999.90;;;;;;;2.19;100.00;102051.97;5033670;28;20049;-77
2022/03/16 01:53:20;;;;;;;1446.47;999.90;;;;;;;2.38;100.00;102059.41;5031183;28;20803;-77
2022/03/16 01:55:54;;;;;;;1468.90;999.90;;;;;;;2.43;100.00;102058.00;5042926;28;20428;-77
2022/03/16 01:58:22;;;;;;;1492.45;999.90;;;;;;;2.38;100.00;102055.91;5035086;28;20060;-77
2022/03/16 02:01:01;;;;;;;1505.93;999.90;;;;;;;2.45;100.00;102069.41;5028664;28;20060;-75
2022/03/16 02:03:34;;;;;;;1515.45;999.90;;;;;;;2.49;100.00;102073.38;5039313;28;20065;-76
2022/03/16 02:06:08;;;;;;;1537.60;999.90;;;;;;;2.46;100.00;102061.16;5029332;28;20064;-77
2022/03/16 02:08:43;;;;;;;1554.93;999.90;;;;;;;2.53;100.00;102075.47;5043398;28;20048;-77
2022/03/16 02:11:16;;;;;;;1568.00;999.90;;;;;;;2.53;100.00;102075.47;5043450;28;20067;-75
2022/03/16 02:13:49;;;;;;;1576.32;999.90;;;;;;;2.59;100.00;102081.13;5034547;28;20042;-77
2022/03/16 02:16:23;;;;;;;1586.85;999.90;;;;;;;2.60;100.00;102080.91;5039329;28;20061;-77
2022/03/16 02:18:56;;;;;;;1598.93;999.90;;;;;;;2.61;100.00;102087.13;5031193;28;20052;-77
2022/03/16 02:21:24;;;;;;;1603.93;999.90;;;;;;;2.62;100.00;102088.78;5035740;28;20057;-77
2022/03/16 02:23:58;;;;;;;1613.03;999.90;;;;;;;2.64;100.00;102097.50;5041189;28;20052;-78
2022/03/16 02:26:31;;;;;;;1615.05;999.90;;;;;;;2.67;100.00;102095.25;5031898;28;20052;-76
2022/03/16 02:29:00;;;;;;;1618.85;999.90;;;;;;;2.64;100.00;102101.03;5043002;28;20052;-77
2022/03/16 02:31:33;;;;;;;1623.53;999.90;;;;;;;2.64;100.00;102098.31;5036637;28;20064;-77
2022/03/16 02:34:01;;;;;;;1630.45;999.90;;;;;;;2.49;100.00;102111.81;5040197;28;20041;-78
2022/03/16 02:36:34;;;;;;;1624.18;999.90;;;;;;;2.47;100.00;102107.66;5037123;28;20055;-78
2022/03/16 02:39:04;;;;;;;1632.30;999.90;;;;;;;2.44;100.00;102106.19;5038491;28;20049;-75
2022/03/16 02:41:37;;;;;;;1634.53;999.90;;;;;;;2.34;100.00;102101.09;5037496;28;20057;-78
2022/03/16 02:44:10;;;;;;;1636.28;999.90;;;;;;;2.20;100.00;102100.13;5034177;28;20065;-77
2022/03/16 02:46:43;;;;;;;1639.18;999.90;;;;;;;2.24;100.00;102089.00;5043593;28;20230;-78
2022/03/16 02:49:11;;;;;;;1625.82;999.90;;;;;;;2.29;100.00;102110.75;5032099;28;20057;-77
2022/03/16 02:51:45;;;;;;;1630.60;999.90;;;;;;;2.26;100.00;102111.97;5032362;28;20057;-76
2022/03/16 02:54:19;;;;;;;1618.80;999.90;;;;;;;2.03;100.00;102117.47;5031391;28;20052;-78
2022/03/16 02:56:48;;;;;;;1624.47;999.90;;;;;;;1.72;100.00;102113.16;5036647;28;20057;-77
2022/03/16 02:59:21;;;;;;;1606.10;999.90;;;;;;;1.71;100.00;102114.16;5042629;28;20049;-77
2022/03/16 03:01:54;;;;;;;1590.45;999.90;;;;;;;1.70;100.00;102136.69;5034743;28;20427;-76
2022/03/16 03:04:22;;;;;;;1587.43;999.90;;;;;;;1.69;100.00;102132.31;5033660;28;20053;-77
2022/03/16 03:06:57;;;;;;;1593.82;999.90;;;;;;;1.80;100.00;102136.41;5034825;28;20060;-76
2022/03/16 03:09:31;;;;;;;1600.00;999.90;;;;;;;1.72;100.00;102133.81;5038049;28;20056;-79
2022/03/16 03:12:06;;;;;;;1612.50;999.90;;;;;;;1.76;100.00;102141.28;5036038;28;20127;-77
2022/03/16 03:14:39;;;;;;;1614.55;999.90;;;;;;;1.78;100.00;102149.16;5036919;28;20525;-76
2022/03/16 03:17:12;;;;;;;1619.38;999.90;;;;;;;1.62;100.00;102145.63;5028562;28;20060;-76
2022/03/16 03:19:47;;;;;;;1611.82;999.90;;;;;;;1.70;100.00;102150.09;5036185;28;20040;-79
2022/03/16 03:22:20;;;;;;;1602.70;999.90;;;;;;;1.68;100.00;102157.47;5038466;28;20441;-80
2022/03/16 03:24:49;;;;;;;1603.25;999.90;;;;;;;1.72;100.00;102158.78;5037467;28;20053;-80
2022/03/16 03:27:23;;;;;;;1595.35;999.90;;;;;;;1.60;100.00;102134.28;5030587;28;20049;-79
2022/03/16 03:29:52;;;;;;;1590.50;999.90;;;;;;;1.66;100.00;102136.19;5033422;28;20057;-79
2022/03/16 03:32:26;;;;;;;1589.75;999.90;;;;;;;1.53;100.00;102144.03;5036009;28;20045;-79
2022/03/16 03:34:59;;;;;;;1585.82;999.90;;;;;;;1.50;100.00;102128.31;5036505;28;20049;-78
2022/03/16 03:37:32;;;;;;;1585.28;999.90;;;;;;;1.64;100.00;102122.16;5034028;28;20048;-78
2022/03/16 03:40:08;;;;;;;1583.80;999.90;;;;;;;1.32;100.00;102118.75;5035022;28;20053;-78
2022/03/16 03:42:36;;;;;;;1585.43;999.90;;;;;;;1.27;100.00;102121.19;5032456;28;20041;-77
2022/03/16 03:45:09;;;;;;;1587.78;999.90;;;;;;;1.26;100.00;102106.09;5031462;28;20049;-78
2022/03/16 03:47:42;;;;;;;1591.13;999.90;;;;;;;1.38;100.00;102100.28;5044052;28;20045;-77
2022/03/16 03:50:11;;;;;;;1593.68;999.90;;;;;;;1.44;100.00;102118.34;5043797;28;20048;-78
2022/03/16 03:52:39;;;;;;;1599.47;999.90;;;;;;;1.42;100.00;102117.66;5036841;28;20049;-78
2022/03/16 03:55:14;;;;;;;1592.20;999.90;;;;;;;1.28;100.00;102111.28;5033849;28;20064;-77
2022/03/16 03:57:47;;;;;;;1588.45;999.90;;;;;;;1.21;100.00;102107.66;5039359;28;20060;-77
2022/03/16 04:00:20;;;;;;;1594.32;999.90;;;;;;;1.18;100.00;102114.22;5038515;28;20041;-78
2022/03/16 04:02:53;;;;;;;1599.78;999.90;;;;;;;1.13;100.00;102112.09;5036114;28;20399;-79
2022/03/16 04:05:26;;;;;;;1596.70;999.90;;;;;;;1.15;100.00;102114.59;5043999;28;20041;-78
2022/03/16 04:07:54;;;;;;;1605.55;999.90;;;;;;;1.24;100.00;102110.78;5038189;28;20505;-78
2022/03/16 04:10:29;;;;;;;1616.75;999.90;;;;;;;1.17;100.00;102115.22;5032908;28;20053;-77
2022/03/16 04:12:57;;;;;;;1621.35;999.90;;;;;;;1.16;100.00;102125.13;5029484;28;20041;-77
2022/03/16 04:15:30;;;;;;;1617.38;999.90;;;;;;;1.05;100.00;102122.03;5036261;28;20049;-78
2022/03/16 04:18:03;;;;;;;1603.75;999.90;;;;;;;1.05;100.00;102136.28;5032446;28;20049;-78
2022/03/16 04:20:31;;;;;;;1609.32;999.90;;;;;;;1.06;100.00;102129.91;5058597;28;20053;-79
2022/03/16 04:22:59;;;;;;;1618.45;999.90;;;;;;;1.05;100.00;102133.63;5027837;28;20053;-76
2022/03/16 04:25:29;;;;;;;1620.57;999.90;;;;;;;0.83;100.00;102127.25;5041541;28;20476;-78
2022/03/16 04:28:02;;;;;;;1618.45;999.90;;;;;;;0.80;100.00;102127.59;5050608;28;20052;-78
2022/03/16 04:30:35;;;;;;;1611.93;999.90;;;;;;;0.80;100.00;102136.47;5037506;28;20063;-78
2022/03/16 04:33:08;;;;;;;1609.30;999.90;;;;;;;0.77;100.00;102130.63;5033851;28;20413;-78
2022/03/16 04:35:42;;;;;;;1603.07;999.90;;;;;;;0.74;100.00;102133.69;5048930;28;20103;-78
2022/03/16 04:38:15;;;;;;;1606.97;999.90;;;;;;;0.75;100.00;102132.66;5039471;28;20049;-77
2022/03/16 04:40:44;;;;;;;1612.13;999.90;;;;;;;0.73;100.00;102127.47;5033643;28;20045;-78
2022/03/16 04:43:12;;;;;;;1615.25;999.90;;;;;;;0.75;100.00;102135.34;5038361;28;20069;-78
2022/03/16 04:45:45;;;;;;;1614.00;999.90;;;;;;;0.72;100.00;102124.97;5036943;28;20041;-77
2022/03/16 04:48:19;;;;;;;1616.28;999.90;;;;;;;0.79;100.00;102142.84;5039149;28;20060;-77
2022/03/16 04:50:52;;;;;;;1612.53;999.90;;;;;;;0.70;100.00;102135.03;5042254;28;20057;-79
2022/03/16 04:53:20;;;;;;;1623.65;999.90;;;;;;;0.77;100.00;102136.00;5037296;28;20052;-78
2022/03/16 04:55:55;;;;;;;1634.80;999.90;;;;;;;0.76;100.00;102135.16;5033056;28;20259;-78
2022/03/16 04:58:28;;;;;;;1642.95;999.90;;;;;;;0.80;100.00;102138.31;5036879;28;20045;-78
2022/03/16 05:01:01;;;;;;;1649.70;999.90;;;;;;;0.63;100.00;102146.47;5031580;28;20053;-77
2022/03/16 05:03:34;;;;;;;1657.15;999.90;;;;;;;0.60;100.00;102151.34;5031480;28;20056;-78
2022/03/16 05:06:07;;;;;;;1674.45;999.90;;;;;;;0.66;100.00;102147.94;5050546;28;20056;-77
2022/03/16 05:08:40;;;;;;;1680.32;999.90;;;;;;;0.55;100.00;102148.38;5030910;28;20060;-77
2022/03/16 05:11:15;;;;;;;1685.10;999.90;;;;;;;0.50;100.00;102155.09;5050565;28;20049;-77
2022/03/16 05:13:48;;;;;;;1675.18;999.90;;;;;;;0.41;100.00;102148.09;5049057;28;20052;-77
2022/03/16 05:16:21;;;;;;;1675.43;999.90;;;;;;;0.39;100.00;102146.59;5034291;28;20643;-78
2022/03/16 05:18:54;;;;;;;1683.85;999.90;;;;;;;0.38;100.00;102139.59;5040918;28;20424;-77
2022/03/16 05:21:27;;;;;;;1686.80;999.90;;;;;;;0.50;100.00;102151.59;5031383;28;20050;-76
2022/03/16 05:23:56;;;;;;;1699.03;999.90;;;;;;;0.51;100.00;102134.47;5034016;28;20053;-76
2022/03/16 05:26:25;;;;;;;1703.53;999.90;;;;;;;0.48;100.00;102146.41;5066833;28;20060;-77
2022/03/16 05:28:59;;;;;;;1707.95;999.90;;;;;;;0.33;100.00;102156.16;5039595;28;20057;-77
2022/03/16 05:31:32;;;;;;;1704.40;999.90;;;;;;;0.25;100.00;102150.84;5033707;28;20512;-76
2022/03/16 05:34:05;;;;;;;1694.13;999.90;;;;;;;0.21;100.00;102149.53;5029264;28;20065;-77
2022/03/16 05:36:38;;;;;;;1691.15;999.90;;;;;;;0.02;100.00;102143.59;5039160;28;20056;-77
2022/03/16 05:39:11;;;;;;;1692.07;999.90;;;;;;;-0.05;100.00;102140.78;5047223;28;20048;-78
2022/03/16 05:41:41;;;;;;;1684.72;999.90;;;;;;;-0.16;100.00;102141.16;5037239;28;20046;-78
2022/03/16 05:44:14;;;;;;;1691.80;999.90;;;;;;;-0.05;100.00;102153.34;5033437;28;20065;-77
2022/03/16 05:46:42;;;;;;;1687.80;999.90;;;;;;;-0.11;100.00;102156.69;5040293;28;20053;-77
2022/03/16 05:49:15;;;;;;;1690.53;999.90;;;;;;;-0.13;100.00;102156.03;5031836;28;20064;-78
2022/03/16 05:51:43;;;;;;;1694.18;999.90;;;;;;;-0.22;100.00;102153.41;5030435;28;20120;-78
2022/03/16 05:54:16;;;;;;;1700.20;999.90;;;;;;;-0.12;100.00;102157.72;5033397;28;20068;-79
2022/03/16 05:56:51;;;;;;;1705.70;999.90;;;;;;;-0.35;100.00;102155.75;5050103;28;20059;-77
2022/03/16 05:59:19;;;;;;;1709.90;999.90;;;;;;;-0.24;100.00;102165.28;5047348;28;20060;-78
2022/03/16 06:01:52;;;;;;;1711.70;999.90;;;;;;;-0.40;100.00;102166.13;5028517;28;20060;-77
2022/03/16 06:04:21;;;;;;;1711.55;999.90;;;;;;;-0.15;100.00;102182.97;5029484;28;20061;-77
2022/03/16 06:06:54;;;;;;;1720.10;999.90;;;;;;;-0.15;100.00;102182.13;5028363;28;20058;-76
2022/03/16 06:09:27;;;;;;;1730.70;999.90;;;;;;;-0.16;100.00;102191.19;5045225;28;20044;-77
2022/03/16 06:12:02;;;;;;;1739.40;999.90;;;;;;;-0.12;100.00;102195.19;5028564;28;20053;-77
2022/03/16 06:14:31;;;;;;;1740.93;999.90;;;;;;;-0.05;100.00;102199.66;5029974;28;20049;-77
2022/03/16 06:17:05;;;;;;;1735.03;999.90;;;;;;;-0.29;100.00;102195.22;5030027;28;20050;-79
2022/03/16 06:19:38;;;;;;;1730.25;999.90;;;;;;;-0.63;100.00;102195.44;5044874;28;20053;-78
2022/03/16 06:22:06;;;;;;;1723.22;999.90;;;;;;;-0.52;100.00;102206.59;5049609;28;20049;-78
2022/03/16 06:24:34;;;;;;;1729.72;999.90;;;;;;;-0.36;100.00;102212.94;5032425;28;20057;-78
2022/03/16 06:27:05;;;;;;;1746.50;999.90;;;;;;;-0.31;100.00;102221.28;5029192;28;20057;-78
2022/03/16 06:29:38;;;;;;;1749.20;999.90;;;;;;;-0.31;100.00;102215.13;5033421;28;20049;-78
2022/03/16 06:32:11;;;;;;;1757.40;999.90;;;;;;;-0.29;100.00;102229.16;5038702;28;20630;-78
2022/03/16 06:34:46;;;;;;;1769.45;999.90;;;;;;;-0.29;100.00;102230.00;5049234;28;20057;-77
2022/03/16 06:37:14;;;;;;;1780.20;999.90;;;;;;;-0.26;100.00;102229.66;5048166;28;20048;-78
2022/03/16 06:39:43;;;;;;;1789.25;999.90;;;;;;;-0.16;100.00;102224.13;5040066;28;20049;-78
2022/03/16 06:42:13;;;;;;;1801.30;999.90;;;;;;;-0.24;100.00;102234.84;5037009;28;20061;-78
2022/03/16 06:44:46;;;;;;;1803.05;999.90;;;;;;;-0.48;100.00;102231.19;5043937;28;20053;-77
2022/03/16 06:47:14;;;;;;;1811.68;999.90;;;;;;;-0.40;100.00;102231.19;5027847;28;20049;-77
2022/03/16 06:49:47;;;;;;;1810.88;999.90;;;;;;;-0.41;100.00;102242.88;5027736;28;20053;-77
2022/03/16 06:52:20;;;;;;;1811.15;999.90;;;;;;;-0.31;100.00;102236.53;5030352;28;20064;-76
2022/03/16 06:54:53;;;;;;;1825.78;999.90;;;;;;;-0.49;100.00;102237.53;5033588;28;20141;-77
2022/03/16 06:57:28;;;;;;;1837.15;999.90;;;;;;;-0.38;100.00;102236.34;5045406;28;20057;-78
2022/03/16 07:00:01;;;;;;;1839.15;999.90;;;;;;;-0.26;100.00;102243.03;5043360;28;20049;-77
2022/03/16 07:02:49;;;;;;;1851.65;999.90;;;;;;;-0.10;100.00;102244.81;5032114;28;20052;-79
2022/03/16 07:05:25;;;;;;;;;;;;;;;0.02;100.00;102245.31;5040163;28;20497;-78
2022/03/16 07:07:59;;;;;;;1864.82;999.90;;;;;;;-0.06;100.00;102256.88;5033520;28;19940;-79
2022/03/16 07:10:33;;;;;;;1887.28;999.90;;;;;;;0.11;100.00;102255.00;5030729;28;20053;-79
2022/03/16 07:13:03;;;;;;;1905.13;999.90;;;;;;;0.33;100.00;102250.75;5043994;28;20053;-77
2022/03/16 07:15:37;;;;;;;1933.75;999.90;;;;;;;0.51;100.00;102249.66;5031241;28;20042;-79
2022/03/16 07:18:11;;;;;;;1951.93;999.90;;;;;;;0.52;100.00;102259.38;5031183;28;20045;-78
2022/03/16 07:20:40;;;;;;;1976.45;999.90;;;;;;;0.71;100.00;102246.59;5034307;28;20067;-77
2022/03/16 07:23:14;;;;;;;1982.45;999.90;;;;;;;0.81;100.00;102245.31;5034105;28;20433;-77
2022/03/16 07:25:49;;;;;;;1975.20;999.90;;;;;;;0.52;100.00;102245.97;5030831;28;20057;-77
2022/03/16 07:28:24;;;;;;;1994.57;999.90;;;;;;;0.75;100.00;102246.03;5035806;28;20060;-77
2022/03/16 07:30:57;;;;;;;1999.90;999.90;;;;;;;1.01;100.00;102240.38;5031705;28;20064;-77
2022/03/16 07:33:25;;;;;;;1999.78;999.90;;;;;;;0.96;100.00;102248.09;5029715;28;20494;-76
2022/03/16 07:35:53;;;;;;;1999.90;999.90;;;;;;;1.19;100.00;102239.25;5033568;28;20053;-79
2022/03/16 07:38:21;;;;;;;1999.90;999.90;;;;;;;1.15;100.00;102251.34;5030684;28;20052;-77
2022/03/16 07:40:50;;;;;;;1999.90;999.90;;;;;;;1.28;100.00;102261.47;5040325;28;20059;-77
2022/03/16 07:43:24;;;;;;;1999.90;999.90;;;;;;;1.37;100.00;102263.09;5044553;28;20049;-79
2022/03/16 07:45:58;;;;;;;1999.90;999.90;;;;;;;1.46;100.00;102261.16;5038705;28;20060;-77
2022/03/16 07:48:34;;;;;;;1999.90;999.90;;;;;;;1.38;100.00;102269.28;5018538;28;20049;-80
2022/03/16 07:51:07;;;;;;;1999.90;999.90;;;;;;;1.52;100.00;102271.19;5028694;28;20064;-77
2022/03/16 07:53:40;;;;;;;1999.90;999.90;;;;;;;1.66;100.00;102269.56;5010950;28;20417;-79
2022/03/16 07:56:14;;;;;;;1999.90;999.90;;;;;;;1.66;100.00;102267.69;5010573;28;20069;-78
2022/03/16 07:58:45;;;;;;;1999.90;999.90;;;;;;;1.55;100.00;102264.59;5006146;28;20052;-78
2022/03/16 08:01:13;;;;;;;1999.90;999.90;;;;;;;1.52;100.00;102255.91;5014443;28;20839;-78
2022/03/16 08:03:47;;;;;;;1999.90;999.90;;;;;;;1.47;100.00;102277.06;5023661;28;20060;-79
2022/03/16 08:06:15;;;;;;;1999.90;999.90;;;;;;;1.68;100.00;102283.63;5020011;28;20064;-78
2022/03/16 08:08:49;;;;;;;1999.90;999.90;;;;;;;1.70;100.00;102277.06;5016577;28;20061;-79
2022/03/16 08:11:22;;;;;;;1999.90;999.90;;;;;;;1.91;100.00;102278.22;5010311;28;20060;-79
2022/03/16 08:13:57;;;;;;;1999.90;999.90;;;;;;;1.75;100.00;102275.69;5016269;28;20879;-79
2022/03/16 08:16:25;;;;;;;1999.90;999.90;;;;;;;1.66;100.00;102283.81;5016641;28;20033;-79
2022/03/16 08:18:58;;;;;;;1999.90;999.90;;;;;;;1.80;100.00;102287.53;5013883;28;20064;-77
2022/03/16 08:21:26;;;;;;;1999.90;999.90;;;;;;;1.86;100.00;102275.25;5013769;28;20691;-79
2022/03/16 08:24:00;;;;;;;1999.90;999.90;;;;;;;2.13;100.00;102284.53;5016191;28;20050;-79
2022/03/16 08:26:34;;;;;;;1999.90;999.90;;;;;;;2.20;100.00;102295.38;5015159;28;20940;-79
2022/03/16 08:29:09;;;;;;;1999.90;999.90;;;;;;;2.43;100.00;102289.09;5012498;28;20049;-78
2022/03/16 08:31:42;;;;;;;1999.90;999.90;;;;;;;2.62;100.00;102290.38;5018895;28;20076;-79
2022/03/16 08:34:15;;;;;;;1999.90;999.90;;;;;;;2.63;100.00;102287.50;5016019;28;20057;-79
2022/03/16 08:36:43;;;;;;;1999.90;999.90;;;;;;;2.64;100.00;102282.97;5014474;28;20049;-78
2022/03/16 08:39:12;;;;;;;1999.90;999.90;;;;;;;2.54;100.00;102292.16;5008937;28;20049;-77
2022/03/16 08:41:45;;;;;;;1999.90;999.90;;;;;;;2.61;100.00;102291.38;5018306;28;20394;-77
2022/03/16 08:44:20;;;;;;;1999.90;999.90;;;;;;;2.55;100.00;102298.34;5017157;28;20550;-78
2022/03/16 08:46:48;;;;;;;1999.90;999.90;;;;;;;2.80;100.00;102289.97;5013443;28;20057;-79
2022/03/16 08:49:22;;;;;;;1999.90;999.90;;;;;;;2.99;100.00;102288.56;5010682;28;20048;-78
2022/03/16 08:51:55;;;;;;;1999.90;999.90;;;;;;;3.18;100.00;102281.75;5007460;28;20498;-78
2022/03/16 08:54:29;;;;;;;1999.90;999.90;;;;;;;3.17;100.00;102288.13;5012826;28;20060;-78
2022/03/16 08:57:02;;;;;;;1999.90;999.90;;;;;;;3.22;100.00;102291.91;5016940;28;20061;-78
2022/03/16 08:59:37;;;;;;;1999.90;999.90;;;;;;;3.08;100.00;102270.44;5006060;28;20057;-78
2022/03/16 09:02:11;;;;;;;1999.90;999.90;;;;;;;3.39;100.00;102294.34;5029933;28;20049;-78
2022/03/16 09:04:39;;;;;;;1999.90;999.90;;;;;;;3.36;100.00;102302.81;5025742;28;20111;-79
2022/03/16 09:07:12;;;;;;;1999.90;999.90;;;;;;;3.23;100.00;102300.81;5016934;28;20053;-77
2022/03/16 09:09:45;;;;;;;1999.90;999.90;;;;;;;3.25;100.00;102295.25;5010318;28;20054;-78
2022/03/16 09:12:18;;;;;;;1999.90;999.90;;;;;;;3.48;100.00;102293.22;5019991;28;20152;-79
2022/03/16 09:14:53;;;;;;;1999.90;999.90;;;;;;;3.75;100.00;102282.66;5013327;28;20060;-78
2022/03/16 09:17:26;;;;;;;1999.90;999.90;;;;;;;3.86;100.00;102294.78;5010853;28;20057;-78
2022/03/16 09:19:59;;;;;;;1999.90;999.90;;;;;;;3.98;100.00;102303.13;5009385;28;20049;-78
2022/03/16 09:22:32;;;;;;;1999.90;999.90;;;;;;;4.09;100.00;102297.22;5004480;28;20061;-78
2022/03/16 09:25:07;;;;;;;1999.90;999.90;;;;;;;4.22;100.00;102296.47;5014982;28;20045;-77
2022/03/16 09:27:35;;;;;;;1999.90;999.90;;;;;;;4.30;100.00;102296.31;5021266;28;20060;-78
2022/03/16 09:30:11;;;;;;;1999.90;999.90;;;;;;;4.45;100.00;102307.00;5016424;28;20740;-80
2022/03/16 09:32:39;;;;;;;1999.90;999.90;;;;;;;4.48;100.00;102295.81;5011162;28;20056;-77
2022/03/16 09:35:12;;;;;;;1999.90;999.90;;;;;;;4.65;100.00;102314.34;5017251;28;20045;-78
2022/03/16 09:37:46;;;;;;;1999.90;999.90;;;;;;;4.95;100.00;102312.19;5011169;28;20052;-77
2022/03/16 09:40:19;;;;;;;1999.90;999.90;;;;;;;4.85;100.00;102304.50;5009581;28;21786;-79
2022/03/16 09:42:48;;;;;;;1999.90;999.90;;;;;;;5.21;100.00;102307.94;5004897;28;20061;-77
2022/03/16 09:45:23;;;;;;;1999.90;999.90;;;;;;;5.36;100.00;102308.59;5009662;28;20060;-79
2022/03/16 09:47:56;;;;;;;1999.90;999.90;;;;;;;5.47;100.00;102306.31;5009641;28;20057;-78
2022/03/16 09:50:30;;;;;;;1999.90;999.90;;;;;;;5.65;100.00;102311.09;5007794;28;20049;-79
2022/03/16 09:53:05;;;;;;;1999.90;999.90;;;;;;;5.46;100.00;102319.00;5009562;28;20061;-77
2022/03/16 09:55:39;;;;;;;1999.90;999.90;;;;;;;5.60;100.00;102322.53;5011500;28;20053;-77
2022/03/16 09:58:12;;;;;;;1999.90;999.90;;;;;;;5.68;100.00;102327.75;5008808;28;20523;-77
2022/03/16 10:00:47;;;;;;;1999.90;999.90;;;;;;;5.93;100.00;102336.06;5010785;28;20108;-77
2022/03/16 10:03:22;;;;;;;1999.90;999.90;;;;;;;6.01;100.00;102342.31;5014295;28;20056;-77
2022/03/16 10:05:56;;;;;;;1999.90;999.90;;;;;;;6.08;100.00;102344.00;5030792;28;20066;-77
2022/03/16 10:08:32;;;;;;;1999.90;999.90;;;;;;;5.87;100.00;102346.88;5009285;28;20056;-76
2022/03/16 10:14:07;;;;;;;1887.10;999.90;;;;;;;6.04;100.00;102352.75;4975025;28;20092;-78
2022/03/16 10:19:25;;;;;;;1825.28;999.90;;;;;;;6.02;100.00;102350.25;5011839;28;20053;-77
2022/03/16 10:22:04;;;;;;;1763.80;999.90;;;;;;;6.07;100.00;102357.72;5004744;28;20076;-79
2022/03/16 10:24:32;;;;;;;1686.38;999.90;;;;;;;6.18;100.00;102353.56;5027291;28;20057;-78
2022/03/16 10:27:06;;;;;;;1638.15;999.90;;;;;;;5.99;100.00;102361.44;5019430;28;20663;-79
2022/03/16 10:29:39;;;;;;;1580.70;999.90;;;;;;;6.13;100.00;102356.88;5009921;28;20056;-78
2022/03/16 10:32:10;;;;;;;1611.45;999.90;;;;;;;6.22;100.00;102352.09;5015022;28;20054;-78
2022/03/16 10:34:49;;;;;;;1611.25;999.90;;;;;;;6.34;100.00;102358.53;5017409;28;20049;-78
2022/03/16 10:37:20;;;;;;;1537.82;999.90;;;;;;;6.31;100.00;102358.94;5008985;28;20060;-78
2022/03/16 10:39:53;;;;;;;1541.60;999.90;;;;;;;6.49;100.00;102369.13;5022178;28;20689;-76
2022/03/16 10:48:17;;;;;;;1366.13;999.90;;;;;;;6.83;100.00;102369.03;5012001;28;20060;-78
2022/03/16 10:50:56;;;;;;;1373.00;999.90;;;;;;;6.63;100.00;102365.34;5010458;28;20057;-78
2022/03/16 10:53:28;;;;;;;1307.95;999.90;;;;;;;6.45;100.00;102360.59;5010763;28;20049;-78
2022/03/16 10:55:59;;;;;;;1287.70;999.90;;;;;;;6.67;100.00;102378.44;5007710;28;20056;-79
2022/03/16 10:58:28;;;;;;;1288.03;999.90;;;;;;;6.73;100.00;102375.72;5008735;28;21302;-79
2022/03/16 11:01:02;;;;;;;1289.70;999.90;;;;;;;6.77;100.00;102376.13;5010716;28;20052;-77
2022/03/16 11:03:38;;;;;;;1274.78;999.90;;;;;;;6.78;100.00;102366.97;5015521;28;20064;-76
2022/03/16 11:06:12;;;;;;;1289.55;999.90;;;;;;;6.78;100.00;102373.22;5018268;28;20057;-78
2022/03/16 11:08:46;;;;;;;1265.32;999.90;;;;;;;6.78;100.00;102373.22;5015286;28;20069;-78
2022/03/16 11:14:06;;;;;;;1230.15;999.90;;;;;;;6.68;100.00;102364.69;5005855;28;20289;-76
2022/03/16 11:16:41;;;;;;;1227.28;999.90;;;;;;;6.75;100.00;102359.28;5005404;28;20056;-78
2022/03/16 11:19:14;;;;;;;1233.43;999.90;;;;;;;6.77;100.00;102359.91;5011300;28;21712;-79
2022/03/16 11:21:54;;;;;;;1239.30;999.90;;;;;;;6.80;100.00;102360.28;5017613;28;20045;-78
2022/03/16 11:24:25;;;;;;;1234.18;999.90;;;;;;;6.75;100.00;102357.41;5012121;28;20548;-79